Time;durP1;ratioP1;P1;durP2;ratioP2;P2;SDS_P1;SDS_P2;PMS_P1;PMS_P2;Temp;Humidity;BMP_temperature;BMP_pressure;BME280_temperature;BME280_humidity;BME280_pressure;Samples;Min_cycle;Max_cycle;Signal;HPM_P1;HPM_P2
2023/03/16 00:02:24;;;;;;;5.32;4.00;;;3.20;99.90;;;;;;5073878;28;20257;-75
2023/03/16 00:04:51;;;;;;;10.90;5.30;;;3.20;99.90;;;;;;5064407;28;20222;-78
2023/03/16 00:07:18;;;;;;;7.38;4.25;;;3.30;99.90;;;;;;5069634;28;20676;-80
2023/03/16 00:09:45;;;;;;;9.50;4.32;;;3.30;99.90;;;;;;5071416;28;20645;-76
2023/03/16 00:12:15;;;;;;;5.20;4.38;;;3.20;99.90;;;;;;5055808;28;20223;-76
2023/03/16 00:14:43;;;;;;;10.30;4.38;;;3.10;99.90;;;;;;5071532;28;20233;-77
2023/03/16 00:17:17;;;;;;;7.45;4.43;;;3.10;99.90;;;;;;5067791;28;20613;-76
2023/03/16 00:19:46;;;;;;;20.27;4.80;;;3.00;99.90;;;;;;5069528;28;20561;-77
2023/03/16 00:22:14;;;;;;;7.28;3.63;;;2.90;99.90;;;;;;5066428;28;20192;-77
2023/03/16 00:25:07;;;;;;;8.60;3.97;;;2.90;99.90;;;;;;5064254;28;20223;-76
2023/03/16 00:27:34;;;;;;;9.68;4.05;;;2.80;99.90;;;;;;5061271;28;20202;-77
2023/03/16 00:30:02;;;;;;;7.07;4.60;;;2.80;99.90;;;;;;5064436;28;20195;-77
2023/03/16 00:32:33;;;;;;;14.02;5.45;;;2.70;99.90;;;;;;5060493;28;20235;-77
2023/03/16 00:35:01;;;;;;;7.30;4.40;;;2.70;99.90;;;;;;5066097;28;20722;-76
2023/03/16 00:37:29;;;;;;;11.20;4.68;;;2.70;99.90;;;;;;5059116;28;20214;-75
2023/03/16 00:39:57;;;;;;;14.00;4.47;;;2.60;99.90;;;;;;5071372;28;20258;-77
2023/03/16 00:42:26;;;;;;;10.65;4.97;;;2.60;99.90;;;;;;5070829;28;20230;-74
2023/03/16 00:44:56;;;;;;;8.02;5.65;;;2.60;99.90;;;;;;5063485;28;20240;-78
2023/03/16 00:47:24;;;;;;;10.05;5.57;;;2.60;99.90;;;;;;5066835;28;20199;-78
2023/03/16 00:49:52;;;;;;;8.68;5.53;;;2.60;99.90;;;;;;5067698;28;20199;-76
2023/03/16 00:52:19;;;;;;;6.85;5.88;;;2.60;99.90;;;;;;5060741;28;20221;-78
2023/03/16 00:54:47;;;;;;;6.40;4.00;;;2.70;99.90;;;;;;5067642;28;20287;-78
2023/03/16 00:57:17;;;;;;;5.90;3.80;;;2.60;99.90;;;;;;5067354;28;20306;-75
2023/03/16 00:59:45;;;;;;;6.68;3.80;;;2.50;99.90;;;;;;5059828;28;20271;-80
2023/03/16 01:02:12;;;;;;;9.75;4.20;;;2.50;99.90;;;;;;5066267;28;20618;-77
2023/03/16 01:04:40;;;;;;;6.55;4.60;;;2.50;99.90;;;;;;5072944;28;20612;-75
2023/03/16 01:07:11;;;;;;;10.55;4.35;;;2.50;99.90;;;;;;5069134;28;20230;-79
2023/03/16 01:09:39;;;;;;;7.95;4.18;;;2.40;99.90;;;;;;5076018;28;20282;-78
2023/03/16 01:12:07;;;;;;;5.38;3.63;;;2.40;99.90;;;;;;5058460;28;20198;-75
2023/03/16 01:14:35;;;;;;;6.80;4.60;;;2.30;99.90;;;;;;5072534;28;20262;-77
2023/03/16 01:17:02;;;;;;;6.03;3.33;;;2.30;99.90;;;;;;5072154;28;20579;-78
2023/03/16 01:19:34;;;;;;;5.47;3.15;;;2.30;99.90;;;;;;5072147;28;20570;-76
2023/03/16 01:22:01;;;;;;;10.93;4.45;;;2.30;99.90;;;;;;5069328;28;20715;-76
2023/03/16 01:24:30;;;;;;;8.45;4.03;;;2.30;99.90;;;;;;5067111;28;20243;-76
2023/03/16 01:26:57;;;;;;;6.97;4.35;;;2.20;99.90;;;;;;5071402;28;20256;-78
2023/03/16 01:29:24;;;;;;;6.05;3.05;;;2.20;99.90;;;;;;5077430;28;20203;-75
2023/03/16 01:31:51;;;;;;;5.25;3.13;;;2.20;99.90;;;;;;5066010;28;20288;-76
2023/03/16 01:34:19;;;;;;;5.72;3.35;;;2.20;99.90;;;;;;5064522;28;20267;-77
2023/03/16 01:36:53;;;;;;;14.85;4.07;;;2.20;99.90;;;;;;5069058;28;20205;-78
2023/03/16 01:39:20;;;;;;;8.07;3.40;;;2.10;99.90;;;;;;5069540;28;20621;-75
2023/03/16 01:41:48;;;;;;;4.10;2.95;;;2.10;99.90;;;;;;5068809;28;20647;-79
2023/03/16 01:44:18;;;;;;;7.93;3.25;;;2.10;99.90;;;;;;5074711;28;20583;-75
2023/03/16 01:46:46;;;;;;;7.25;3.17;;;2.10;99.90;;;;;;5065761;28;20241;-77
2023/03/16 01:49:16;;;;;;;5.53;3.35;;;2.10;99.90;;;;;;5071662;28;20646;-79
2023/03/16 01:51:46;;;;;;;5.90;3.50;;;2.00;99.90;;;;;;5065762;28;20908;-74
2023/03/16 01:54:23;;;;;;;7.10;3.60;;;2.00;99.90;;;;;;5064192;28;20229;-77
2023/03/16 01:56:59;;;;;;;13.15;4.22;;;2.00;99.90;;;;;;5063295;28;20631;-78
2023/03/16 01:59:30;;;;;;;5.05;3.00;;;2.00;99.90;;;;;;5066706;28;20230;-73
2023/03/16 02:01:57;;;;;;;6.68;3.20;;;2.00;99.90;;;;;;5070134;28;20209;-78
2023/03/16 02:04:35;;;;;;;7.60;3.58;;;2.10;99.90;;;;;;5067130;28;20226;-77
2023/03/16 02:07:05;;;;;;;4.70;3.63;;;2.10;99.90;;;;;;5070963;28;20294;-75
2023/03/16 02:09:33;;;;;;;5.63;3.20;;;2.10;99.90;;;;;;5060576;28;20231;-78
2023/03/16 02:12:03;;;;;;;6.82;3.65;;;2.20;99.90;;;;;;5078045;28;20286;-76
2023/03/16 02:14:30;;;;;;;12.18;3.70;;;2.20;99.90;;;;;;5070668;28;20269;-75
2023/03/16 02:16:57;;;;;;;6.97;3.45;;;2.20;99.90;;;;;;5065113;28;20245;-78
2023/03/16 02:19:46;;;;;;;10.75;3.88;;;2.20;99.90;;;;;;5067751;28;20286;-74
2023/03/16 02:22:14;;;;;;;3.70;3.00;;;2.30;99.90;;;;;;5067321;28;20272;-78
2023/03/16 02:24:42;;;;;;;5.28;3.20;;;2.30;99.90;;;;;;5068603;28;20222;-77
2023/03/16 02:27:13;;;;;;;6.95;3.10;;;2.30;99.90;;;;;;5065706;28;20317;-75
2023/03/16 02:30:04;;;;;;;15.20;3.72;;;2.30;99.90;;;;;;5070539;28;20214;-77
2023/03/16 02:32:32;;;;;;;4.53;3.38;;;2.40;99.90;;;;;;5066509;28;20738;-79
2023/03/16 02:35:01;;;;;;;5.05;3.53;;;2.30;99.90;;;;;;5067151;28;20301;-79
2023/03/16 02:37:28;;;;;;;7.60;3.53;;;2.40;99.90;;;;;;5060731;28;20204;-75
2023/03/16 02:39:55;;;;;;;5.50;2.72;;;2.40;99.90;;;;;;5068677;28;20206;-77
2023/03/16 02:42:25;;;;;;;14.48;3.45;;;2.40;99.90;;;;;;5063440;28;20256;-78
2023/03/16 02:44:55;;;;;;;7.90;3.92;;;2.40;99.90;;;;;;5057177;28;20224;-76
2023/03/16 02:47:32;;;;;;;4.88;3.40;;;2.30;99.90;;;;;;5074847;28;20280;-75
2023/03/16 02:49:58;;;;;;;12.93;4.65;;;2.30;99.90;;;;;;5067956;28;20278;-75
2023/03/16 02:52:25;;;;;;;5.55;3.60;;;2.20;99.90;;;;;;5075044;28;20623;-78
2023/03/16 02:55:09;;;;;;;5.93;3.33;;;2.20;99.90;;;;;;5071081;28;20273;-76
2023/03/16 02:57:36;;;;;;;5.38;3.45;;;2.20;99.90;;;;;;5073509;28;20187;-77
2023/03/16 03:00:10;;;;;;;8.73;3.53;;;2.20;99.90;;;;;;5065455;28;20287;-75
2023/03/16 03:02:38;;;;;;;7.00;4.45;;;2.00;99.90;;;;;;5062386;28;20207;-78
2023/03/16 03:05:06;;;;;;;5.95;3.80;;;2.20;99.90;;;;;;5070313;28;20246;-74
2023/03/16 03:07:33;;;;;;;7.18;4.00;;;2.20;99.90;;;;;;5065864;28;20282;-77
2023/03/16 03:10:01;;;;;;;9.77;3.60;;;2.20;99.90;;;;;;5065443;28;20282;-78
2023/03/16 03:12:28;;;;;;;4.38;3.10;;;2.20;99.90;;;;;;5064882;28;20204;-75
2023/03/16 03:14:56;;;;;;;6.45;3.67;;;2.20;99.90;;;;;;5057932;28;20253;-76
2023/03/16 03:17:28;;;;;;;4.40;3.72;;;2.10;99.90;;;;;;5069527;28;20608;-75
2023/03/16 03:19:57;;;;;;;9.75;3.50;;;2.10;99.90;;;;;;5056158;28;20287;-76
2023/03/16 03:22:25;;;;;;;11.52;5.00;;;2.00;99.90;;;;;;5064368;28;20203;-75
2023/03/16 03:24:52;;;;;;;7.57;4.10;;;2.00;99.90;;;;;;5071707;28;20278;-76
2023/03/16 03:27:21;;;;;;;6.25;4.07;;;1.90;99.90;;;;;;5061656;28;20200;-75
2023/03/16 03:29:48;;;;;;;8.90;4.82;;;1.90;99.90;;;;;;5062813;28;20203;-78
2023/03/16 03:32:15;;;;;;;8.85;4.25;;;1.90;99.90;;;;;;5067781;28;20739;-78
2023/03/16 03:34:42;;;;;;;5.50;4.07;;;1.90;99.90;;;;;;5066756;28;20692;-74
2023/03/16 03:37:10;;;;;;;5.97;4.00;;;2.00;99.90;;;;;;5064996;28;20206;-75
2023/03/16 03:39:39;;;;;;;7.07;4.13;;;2.00;99.90;;;;;;5065316;28;20566;-77
2023/03/16 03:42:06;;;;;;;5.72;4.28;;;2.00;99.90;;;;;;5067131;28;20215;-76
2023/03/16 03:44:34;;;;;;;9.25;4.13;;;2.00;99.90;;;;;;5068469;28;20223;-79
2023/03/16 03:47:01;;;;;;;12.80;4.13;;;2.00;99.90;;;;;;5074861;28;20681;-77
2023/03/16 03:49:28;;;;;;;7.93;4.93;;;2.00;99.90;;;;;;5066659;28;20208;-76
2023/03/16 03:51:57;;;;;;;6.65;4.35;;;2.20;99.90;;;;;;5072967;28;20202;-75
2023/03/16 03:54:26;;;;;;;9.07;4.80;;;2.10;99.90;;;;;;5074674;28;20230;-78
2023/03/16 03:56:53;;;;;;;7.55;4.25;;;2.10;99.90;;;;;;5073463;28;20226;-78
2023/03/16 03:59:21;;;;;;;8.68;5.07;;;2.00;99.90;;;;;;5066383;28;20285;-76
2023/03/16 04:01:48;;;;;;;8.93;4.10;;;2.00;99.90;;;;;;5069626;28;20209;-77
2023/03/16 04:04:16;;;;;;;8.85;3.75;;;2.00;99.90;;;;;;5072495;28;20222;-75
2023/03/16 04:06:42;;;;;;;6.07;3.70;;;2.00;99.90;;;;;;5064816;28;20295;-77
2023/03/16 04:09:10;;;;;;;5.97;3.95;;;2.10;99.90;;;;;;5070133;28;20746;-76
2023/03/16 04:11:38;;;;;;;5.47;4.63;;;2.20;99.90;;;;;;5067997;28;20254;-77
2023/03/16 04:14:06;;;;;;;11.98;5.07;;;2.30;99.90;;;;;;5072508;28;20724;-76
2023/03/16 04:16:33;;;;;;;8.93;4.55;;;2.30;99.90;;;;;;5070832;28;20207;-76
2023/03/16 04:19:01;;;;;;;6.85;3.97;;;2.40;99.90;;;;;;5062481;28;20207;-77
2023/03/16 04:21:28;;;;;;;6.53;4.28;;;2.40;99.90;;;;;;5067615;28;20207;-78
2023/03/16 04:23:55;;;;;;;6.97;4.32;;;2.50;99.90;;;;;;5073173;28;20255;-76
2023/03/16 04:26:24;;;;;;;6.55;4.25;;;2.60;99.90;;;;;;5070583;28;20293;-76
2023/03/16 04:28:52;;;;;;;10.45;4.00;;;2.70;99.90;;;;;;5066491;28;20203;-76
2023/03/16 04:31:19;;;;;;;5.32;4.60;;;2.70;99.90;;;;;;5073301;28;20209;-76
2023/03/16 04:33:46;;;;;;;6.47;4.28;;;2.70;99.90;;;;;;5066507;28;20616;-75
2023/03/16 04:36:13;;;;;;;11.13;4.50;;;2.70;99.90;;;;;;5079982;28;20225;-76
2023/03/16 04:38:40;;;;;;;7.68;4.22;;;2.70;99.90;;;;;;5081187;28;20288;-78
2023/03/16 04:41:08;;;;;;;5.90;3.45;;;2.80;99.90;;;;;;5085786;28;20285;-76
2023/03/16 04:43:35;;;;;;;8.18;4.57;;;2.80;99.90;;;;;;5082338;28;20708;-78
2023/03/16 04:46:04;;;;;;;7.97;3.72;;;2.70;99.90;;;;;;5065975;28;20200;-76
2023/03/16 04:48:32;;;;;;;8.43;3.95;;;2.70;99.90;;;;;;5075907;28;20349;-74
2023/03/16 04:51:00;;;;;;;10.50;3.95;;;2.70;99.90;;;;;;5074758;28;20203;-77
2023/03/16 04:53:27;;;;;;;6.32;4.63;;;2.70;99.90;;;;;;5077598;28;20590;-78
2023/03/16 04:55:55;;;;;;;7.38;3.95;;;2.70;99.90;;;;;;5066215;28;20301;-77
2023/03/16 04:58:22;;;;;;;10.07;4.88;;;2.60;99.90;;;;;;5068477;28;20209;-78
2023/03/16 05:00:51;;;;;;;8.40;4.10;;;2.60;99.90;;;;;;5063515;28;20201;-76
2023/03/16 05:03:20;;;;;;;15.35;6.20;;;2.60;99.90;;;;;;5080266;28;20260;-78
2023/03/16 05:05:48;;;;;;;6.65;4.22;;;2.60;99.90;;;;;;5066833;28;20198;-76
2023/03/16 05:08:15;;;;;;;10.85;3.67;;;2.60;99.90;;;;;;5073944;28;20681;-78
2023/03/16 05:10:43;;;;;;;12.73;4.90;;;2.60;99.90;;;;;;5062543;28;20234;-78
2023/03/16 05:13:10;;;;;;;7.05;3.95;;;2.60;99.90;;;;;;5066082;28;20218;-75
2023/03/16 05:15:37;;;;;;;5.10;4.60;;;2.60;99.90;;;;;;5068620;28;20317;-76
2023/03/16 05:18:04;;;;;;;10.45;3.75;;;2.70;99.90;;;;;;5061438;28;20204;-75
2023/03/16 05:20:32;;;;;;;7.38;4.70;;;2.70;99.90;;;;;;5060839;28;20705;-75
2023/03/16 05:22:59;;;;;;;10.63;4.43;;;2.70;99.90;;;;;;5066588;28;20293;-74
2023/03/16 05:25:26;;;;;;;10.00;4.97;;;2.70;99.90;;;;;;5071274;28;20573;-74
2023/03/16 05:27:53;;;;;;;10.63;4.95;;;2.70;99.90;;;;;;5068310;28;20602;-79
2023/03/16 05:30:20;;;;;;;9.02;4.20;;;2.70;99.90;;;;;;5061180;28;20207;-76
2023/03/16 05:32:47;;;;;;;7.93;4.93;;;2.70;99.90;;;;;;5066479;28;20219;-75
2023/03/16 05:35:14;;;;;;;7.93;4.38;;;2.70;99.90;;;;;;5062594;28;20218;-76
2023/03/16 05:37:43;;;;;;;10.50;4.32;;;2.70;99.90;;;;;;5066112;28;20286;-77
2023/03/16 05:40:15;;;;;;;10.98;5.47;;;2.90;99.90;;;;;;5062607;28;20210;-77
2023/03/16 05:42:44;;;;;;;7.10;3.55;;;2.90;99.90;;;;;;5057899;28;20231;-76
2023/03/16 05:45:12;;;;;;;8.48;4.63;;;3.00;99.90;;;;;;5064109;28;20214;-77
2023/03/16 05:47:39;;;;;;;8.80;5.40;;;3.00;99.90;;;;;;5064742;28;20223;-76
2023/03/16 05:50:10;;;;;;;12.23;5.55;;;3.00;99.90;;;;;;5064634;28;20233;-78
2023/03/16 05:52:37;;;;;;;9.50;5.30;;;3.10;99.90;;;;;;5065396;28;20208;-78
2023/03/16 05:55:06;;;;;;;11.25;5.63;;;3.00;99.90;;;;;;5069500;28;20301;-76
2023/03/16 05:57:33;;;;;;;5.97;4.63;;;3.00;99.90;;;;;;5067588;28;20281;-75
2023/03/16 06:00:10;;;;;;;12.38;4.38;;;3.10;99.90;;;;;;5071246;28;20705;-79
2023/03/16 06:02:38;;;;;;;8.18;4.88;;;3.10;99.90;;;;;;5065101;28;20199;-80
2023/03/16 06:05:06;;;;;;;4.60;3.72;;;3.10;99.90;;;;;;5071921;28;20198;-76
2023/03/16 06:07:33;;;;;;;7.25;3.60;;;3.10;99.90;;;;;;5068973;28;20326;-77
2023/03/16 06:10:00;;;;;;;10.18;4.82;;;3.00;99.90;;;;;;5067374;28;20258;-76
2023/03/16 06:12:28;;;;;;;7.57;3.83;;;3.00;99.90;;;;;;5066458;28;20362;-75
2023/03/16 06:14:55;;;;;;;8.30;4.22;;;3.10;99.90;;;;;;5069107;28;20651;-75
2023/03/16 06:17:23;;;;;;;6.68;3.08;;;3.20;99.90;;;;;;5065002;28;20203;-73
2023/03/16 06:19:50;;;;;;;4.15;3.00;;;3.20;99.90;;;;;;5065843;28;20647;-77
2023/03/16 06:22:17;;;;;;;6.93;3.85;;;3.20;99.90;;;;;;5063545;28;20210;-78
2023/03/16 06:24:44;;;;;;;8.40;3.90;;;3.30;99.90;;;;;;5065314;28;20195;-77
2023/03/16 06:27:12;;;;;;;9.20;3.75;;;3.40;99.90;;;;;;5066426;28;20290;-75
2023/03/16 06:29:40;;;;;;;8.40;4.00;;;3.40;99.90;;;;;;5064109;28;20199;-74
2023/03/16 06:32:08;;;;;;;9.05;3.30;;;3.40;99.90;;;;;;5072328;28;20226;-74
2023/03/16 06:34:35;;;;;;;5.40;3.28;;;3.50;99.90;;;;;;5071747;28;20655;-78
2023/03/16 06:37:02;;;;;;;6.93;4.35;;;3.60;99.90;;;;;;5064441;28;20644;-74
2023/03/16 06:39:29;;;;;;;6.38;3.38;;;3.70;99.90;;;;;;5065792;28;20647;-75
2023/03/16 06:41:56;;;;;;;7.68;3.65;;;3.70;99.90;;;;;;5068828;28;20200;-77
2023/03/16 06:44:23;;;;;;;5.13;3.00;;;3.90;99.90;;;;;;5065968;28;20250;-75
2023/03/16 06:46:52;;;;;;;6.18;4.05;;;4.00;99.90;;;;;;5065666;28;20622;-78
2023/03/16 06:49:19;;;;;;;16.58;3.60;;;4.10;99.90;;;;;;5067056;28;20243;-78
2023/03/16 06:51:46;;;;;;;12.18;4.78;;;4.20;99.90;;;;;;5066504;28;20288;-74
2023/03/16 06:54:13;;;;;;;8.73;3.28;;;4.30;99.90;;;;;;5066282;28;20735;-76
2023/03/16 06:56:40;;;;;;;9.27;4.72;;;4.30;99.90;;;;;;5073372;28;20219;-78
2023/03/16 06:59:08;;;;;;;9.98;3.35;;;4.50;99.90;;;;;;5070634;28;20597;-74
2023/03/16 07:01:35;;;;;;;6.38;3.22;;;4.60;99.90;;;;;;5081638;28;20302;-75
2023/03/16 07:04:03;;;;;;;8.20;3.20;;;4.60;99.90;;;;;;5075236;28;20218;-79
2023/03/16 07:06:31;;;;;;;5.25;2.83;;;4.60;99.90;;;;;;5075588;28;20565;-77
2023/03/16 07:08:58;;;;;;;7.25;2.90;;;4.50;99.90;;;;;;5071192;28;20207;-77
2023/03/16 07:11:24;;;;;;;9.32;3.78;;;4.60;99.90;;;;;;5073803;28;20221;-74
2023/03/16 07:13:52;;;;;;;7.95;3.33;;;4.70;99.90;;;;;;5070007;28;20254;-75
2023/03/16 07:16:20;;;;;;;4.47;3.03;;;4.80;99.90;;;;;;5067659;28;20294;-78
2023/03/16 07:18:47;;;;;;;7.63;3.42;;;4.70;99.90;;;;;;5085193;28;20224;-74
2023/03/16 07:21:16;;;;;;;6.22;2.53;;;4.80;99.90;;;;;;5071904;28;20211;-75
2023/03/16 07:23:43;;;;;;;7.90;3.97;;;5.00;99.90;;;;;;5069807;28;20223;-77
2023/03/16 07:26:11;;;;;;;10.05;4.05;;;4.90;99.90;;;;;;5077401;28;20278;-74
2023/03/16 07:28:38;;;;;;;4.60;3.72;;;5.00;99.90;;;;;;5075514;28;20272;-75
2023/03/16 07:31:05;;;;;;;5.05;3.55;;;5.20;99.90;;;;;;5075392;28;20233;-73
2023/03/16 07:33:33;;;;;;;6.53;4.03;;;5.30;99.90;;;;;;5068870;28;20288;-75
2023/03/16 07:36:03;;;;;;;7.95;3.75;;;5.40;99.90;;;;;;5071359;28;20284;-74
2023/03/16 07:38:32;;;;;;;6.38;3.30;;;5.60;99.90;;;;;;5063796;28;20231;-75
2023/03/16 07:40:59;;;;;;;5.75;3.40;;;5.60;99.90;;;;;;5069818;28;20195;-78
2023/03/16 07:43:35;;;;;;;8.07;3.40;;;5.60;99.90;;;;;;5061525;28;20313;-75
2023/03/16 07:46:12;;;;;;;9.88;3.72;;;5.70;99.90;;;;;;5069285;28;20243;-75
2023/03/16 07:48:41;;;;;;;4.53;3.22;;;6.00;99.90;;;;;;5066153;28;20207;-76
2023/03/16 07:51:08;;;;;;;9.85;3.55;;;6.20;99.90;;;;;;5067267;28;20199;-77
2023/03/16 07:53:37;;;;;;;6.28;3.35;;;6.70;99.90;;;;;;5068737;28;20324;-74
2023/03/16 07:56:06;;;;;;;10.02;4.70;;;7.30;99.90;;;;;;5059373;28;20969;-77
2023/03/16 07:58:34;;;;;;;6.55;3.10;;;7.60;99.00;;;;;;5073601;28;20203;-73
2023/03/16 08:01:01;;;;;;;3.97;3.40;;;8.10;97.60;;;;;;5060595;28;20227;-73
2023/03/16 08:03:30;;;;;;;4.28;3.10;;;8.70;97.10;;;;;;5075965;28;20654;-75
2023/03/16 08:05:58;;;;;;;4.88;2.88;;;9.10;95.00;;;;;;5070158;28;20198;-73
2023/03/16 08:08:25;;;;;;;8.02;2.80;;;9.60;94.30;;;;;;5062054;28;20251;-76
2023/03/16 08:11:03;;;;;;;6.65;2.72;;;9.90;93.40;;;;;;5069568;28;20653;-75
2023/03/16 08:13:30;;;;;;;9.55;4.97;;;10.40;92.20;;;;;;5058141;28;20309;-78
2023/03/16 08:16:00;;;;;;;6.68;3.15;;;10.70;91.40;;;;;;5059334;28;20208;-78
2023/03/16 08:18:28;;;;;;;6.80;3.67;;;10.90;90.70;;;;;;5061705;28;20198;-78
2023/03/16 08:20:56;;;;;;;6.60;4.05;;;10.80;90.50;;;;;;5061456;28;20672;-78
2023/03/16 08:23:29;;;;;;;6.03;3.40;;;10.80;90.50;;;;;;5069495;28;20777;-76
2023/03/16 08:25:57;;;;;;;4.20;3.10;;;10.60;90.80;;;;;;5067157;28;20201;-77
2023/03/16 08:28:25;;;;;;;7.05;3.53;;;10.00;90.80;;;;;;5070474;28;20192;-78
2023/03/16 08:30:54;;;;;;;7.13;3.38;;;9.80;91.50;;;;;;5062499;28;20258;-75
2023/03/16 08:33:21;;;;;;;5.55;3.15;;;9.50;91.60;;;;;;5066883;28;20227;-78
2023/03/16 08:35:48;;;;;;;10.93;3.70;;;9.40;92.10;;;;;;5066164;28;20219;-75
2023/03/16 08:38:16;;;;;;;6.28;4.70;;;9.60;91.90;;;;;;5071454;28;20610;-77
2023/03/16 08:40:47;;;;;;;9.07;3.33;;;9.90;91.30;;;;;;5076232;28;20244;-72
2023/03/16 08:43:14;;;;;;;5.97;3.00;;;10.30;90.80;;;;;;5071854;28;20253;-79
2023/03/16 08:45:45;;;;;;;7.72;4.47;;;10.90;88.80;;;;;;5076388;28;20213;-74
2023/03/16 08:48:14;;;;;;;6.07;3.53;;;11.10;88.30;;;;;;5074904;28;20195;-80
2023/03/16 08:50:42;;;;;;;6.93;3.50;;;11.60;87.00;;;;;;5068494;28;21007;-77
2023/03/16 08:53:09;;;;;;;5.10;3.45;;;12.30;86.20;;;;;;5065513;28;20219;-75
2023/03/16 08:55:36;;;;;;;5.65;3.00;;;12.70;82.60;;;;;;5061712;28;20307;-75
2023/03/16 08:58:03;;;;;;;4.18;3.25;;;12.90;82.20;;;;;;5066915;28;20190;-79
2023/03/16 09:00:32;;;;;;;4.30;3.88;;;12.60;80.90;;;;;;5078776;28;20737;-79
2023/03/16 09:03:01;;;;;;;7.65;2.83;;;12.80;81.10;;;;;;5067358;28;20742;-75
2023/03/16 09:05:29;;;;;;;6.97;2.90;;;12.20;81.40;;;;;;5059466;28;20207;-77
2023/03/16 09:07:57;;;;;;;3.70;2.97;;;12.30;81.40;;;;;;5059800;28;20251;-77
2023/03/16 09:10:25;;;;;;;2.78;2.17;;;11.70;80.20;;;;;;5062880;28;20650;-77
2023/03/16 09:12:53;;;;;;;8.60;3.15;;;12.00;81.50;;;;;;5070720;28;20226;-80
2023/03/16 09:15:21;;;;;;;5.70;3.17;;;11.20;81.80;;;;;;5062416;28;20294;-76
2023/03/16 09:17:49;;;;;;;7.93;3.00;;;11.70;83.30;;;;;;5057952;28;20318;-75
2023/03/16 09:20:19;;;;;;;6.32;2.83;;;11.70;82.90;;;;;;5066297;28;20231;-76
2023/03/16 09:22:47;;;;;;;4.00;2.95;;;11.70;82.20;;;;;;5061336;28;20312;-76
2023/03/16 09:25:14;;;;;;;6.88;2.90;;;11.90;81.70;;;;;;5071269;28;20191;-76
2023/03/16 09:27:41;;;;;;;4.75;2.95;;;11.60;82.10;;;;;;5070951;28;20234;-76
2023/03/16 09:30:10;;;;;;;5.75;2.40;;;11.30;81.10;;;;;;5061505;28;20202;-77
2023/03/16 09:32:37;;;;;;;6.07;3.33;;;11.40;81.50;;;;;;5065525;28;20214;-76
2023/03/16 09:35:05;;;;;;;8.48;2.70;;;11.60;82.60;;;;;;5066157;28;20198;-76
2023/03/16 09:37:34;;;;;;;5.97;2.75;;;11.70;83.10;;;;;;5065875;28;20674;-76
2023/03/16 09:40:01;;;;;;;6.28;3.35;;;12.50;81.90;;;;;;5069192;28;20198;-78
2023/03/16 09:42:35;;;;;;;4.28;2.50;;;12.70;79.80;;;;;;5064410;28;20203;-81
2023/03/16 09:45:15;;;;;;;8.57;2.90;;;12.80;79.80;;;;;;5066180;28;20225;-74
2023/03/16 09:47:47;;;;;;;9.50;2.97;;;12.80;79.40;;;;;;5070125;28;20727;-76
2023/03/16 09:50:21;;;;;;;3.00;2.40;;;13.40;78.70;;;;;;5053341;28;20211;-80
2023/03/16 09:52:57;;;;;;;5.13;3.08;;;13.50;77.40;;;;;;5063530;28;20301;-77
2023/03/16 09:55:30;;;;;;;3.25;2.65;;;13.30;77.60;;;;;;5066152;28;20198;-79
2023/03/16 09:57:58;;;;;;;5.50;2.22;;;13.40;76.20;;;;;;5066285;28;20548;-77
2023/03/16 10:00:28;;;;;;;5.78;2.95;;;12.50;77.00;;;;;;5067782;28;20293;-76
2023/03/16 10:03:14;;;;;;;4.47;2.70;;;12.30;77.70;;;;;;5069757;28;20248;-78
2023/03/16 10:05:41;;;;;;;3.72;2.75;;;12.10;79.10;;;;;;5066777;28;20202;-76
2023/03/16 10:08:21;;;;;;;10.32;3.08;;;11.90;78.60;;;;;;5071835;28;20279;-80
2023/03/16 10:11:05;;;;;;;7.20;3.15;;;11.60;79.20;;;;;;5065849;28;20208;-78
2023/03/16 10:13:39;;;;;;;5.80;2.90;;;11.50;79.70;;;;;;5060474;28;20280;-77
2023/03/16 10:16:11;;;;;;;7.22;3.08;;;11.70;79.50;;;;;;5061131;28;20284;-76
2023/03/16 10:18:43;;;;;;;7.20;2.40;;;11.50;80.10;;;;;;5065400;28;20202;-76
2023/03/16 10:21:17;;;;;;;2.88;2.03;;;11.10;80.20;;;;;;5071608;28;20283;-79
2023/03/16 10:23:47;;;;;;;4.28;2.55;;;10.60;80.50;;;;;;5066208;28;20276;-78
2023/03/16 10:26:18;;;;;;;3.40;2.20;;;10.30;81.90;;;;;;5067839;28;20199;-78
2023/03/16 10:28:45;;;;;;;5.65;2.95;;;9.90;83.20;;;;;;5062982;28;20520;-76
2023/03/16 10:31:13;;;;;;;3.85;2.25;;;9.90;84.20;;;;;;5070038;28;20210;-76
2023/03/16 10:33:40;;;;;;;3.88;2.25;;;10.10;83.30;;;;;;5073168;28;20636;-78
2023/03/16 10:36:19;;;;;;;3.92;2.58;;;10.20;83.20;;;;;;5080663;28;20219;-80
2023/03/16 10:38:50;;;;;;;3.58;2.63;;;10.30;82.90;;;;;;5075942;28;20200;-79
2023/03/16 10:41:29;;;;;;;3.95;1.92;;;10.30;82.40;;;;;;5070038;28;20197;-77
2023/03/16 10:43:58;;;;;;;4.00;2.33;;;10.00;82.80;;;;;;5063318;28;20226;-74
2023/03/16 10:46:27;;;;;;;2.40;2.00;;;10.40;82.90;;;;;;5071319;28;20258;-80
2023/03/16 10:48:58;;;;;;;4.95;2.20;;;10.70;83.10;;;;;;5084782;28;20262;-78
2023/03/16 10:51:29;;;;;;;3.33;2.05;;;10.80;82.40;;;;;;5072146;28;20609;-76
2023/03/16 10:54:09;;;;;;;3.88;2.60;;;10.50;81.60;;;;;;5077033;28;20307;-78
2023/03/16 10:56:36;;;;;;;4.00;2.05;;;10.40;82.50;;;;;;5067526;28;20219;-76
2023/03/16 10:59:15;;;;;;;3.45;2.03;;;10.40;83.00;;;;;;5069143;28;20288;-78
2023/03/16 11:01:47;;;;;;;3.78;2.83;;;10.40;83.10;;;;;;5074467;28;20269;-76
2023/03/16 11:04:16;;;;;;;7.82;3.03;;;10.50;83.30;;;;;;5072302;28;20228;-75
2023/03/16 11:06:52;;;;;;;4.13;2.60;;;10.40;82.80;;;;;;5072278;28;20205;-76
2023/03/16 11:09:24;;;;;;;5.35;2.63;;;10.50;83.70;;;;;;5067110;28;20667;-79
2023/03/16 11:11:52;;;;;;;3.20;2.22;;;10.80;83.50;;;;;;5068060;28;20281;-78
2023/03/16 11:14:23;;;;;;;7.32;2.47;;;10.90;83.10;;;;;;5065395;28;20652;-80
2023/03/16 11:16:57;;;;;;;2.33;2.08;;;11.10;84.00;;;;;;5068210;28;20215;-79
2023/03/16 11:19:28;;;;;;;3.08;2.10;;;11.40;83.10;;;;;;5075595;28;20225;-78
2023/03/16 11:22:00;;;;;;;5.60;2.28;;;11.30;82.20;;;;;;5080197;28;20205;-81
2023/03/16 11:24:34;;;;;;;3.85;2.33;;;11.50;81.50;;;;;;5067699;28;20227;-74
2023/03/16 11:27:04;;;;;;;3.28;2.13;;;11.60;81.10;;;;;;5083628;28;20266;-79
2023/03/16 11:29:45;;;;;;;5.82;3.10;;;11.60;80.80;;;;;;5068996;28;20210;-79
2023/03/16 11:32:16;;;;;;;4.45;2.40;;;11.20;81.10;;;;;;5071878;28;20194;-79
2023/03/16 11:34:46;;;;;;;4.35;2.50;;;11.10;80.40;;;;;;5072158;28;20223;-80
2023/03/16 11:37:24;;;;;;;5.35;2.88;;;11.20;81.40;;;;;;5067658;28;20230;-79
2023/03/16 11:40:06;;;;;;;4.35;2.53;;;11.20;81.90;;;;;;5066519;28;20260;-77
2023/03/16 11:42:38;;;;;;;3.75;2.30;;;11.30;81.10;;;;;;5076628;28;20243;-80
2023/03/16 11:45:20;;;;;;;4.90;2.78;;;11.60;81.40;;;;;;5065342;28;20297;-77
2023/03/16 11:48:09;;;;;;;8.57;2.70;;;11.70;80.70;;;;;;5070422;28;20263;-78
2023/03/16 11:50:47;;;;;;;4.20;3.05;;;11.80;80.40;;;;;;5069299;28;20256;-77
2023/03/16 11:56:46;;;;;;;4.13;2.20;;;12.10;79.50;;;;;;5133446;22;20225;-84
2023/03/16 12:00:14;;;;;;;4.78;3.20;;;11.60;80.00;;;;;;5037224;28;20245;-85
2023/03/16 12:02:54;;;;;;;3.70;2.42;;;11.70;80.20;;;;;;5020519;28;20234;-82
2023/03/16 12:05:33;;;;;;;3.92;2.35;;;11.80;79.90;;;;;;5038096;28;20202;-82
2023/03/16 12:08:13;;;;;;;3.47;2.20;;;12.00;79.10;;;;;;5030417;28;20198;-83
2023/03/16 12:10:48;;;;;;;5.80;2.78;;;11.70;79.30;;;;;;5030211;28;20270;-83
2023/03/16 12:13:32;;;;;;;5.18;3.08;;;11.50;78.90;;;;;;5032772;28;20219;-83
2023/03/16 12:16:03;;;;;;;4.35;2.63;;;11.40;79.50;;;;;;5030869;28;20226;-83
2023/03/16 12:18:40;;;;;;;5.00;2.70;;;11.70;79.70;;;;;;5028421;28;20258;-82
2023/03/16 12:21:16;;;;;;;3.65;2.40;;;11.60;79.20;;;;;;5035792;28;20221;-84
2023/03/16 12:23:59;;;;;;;2.35;2.13;;;11.70;79.30;;;;;;5035550;28;20270;-83
2023/03/16 12:26:29;;;;;;;4.80;2.08;;;11.80;79.20;;;;;;5034511;28;20213;-83
2023/03/16 12:29:00;;;;;;;5.53;2.45;;;11.60;78.90;;;;;;5034990;28;20828;-82
2023/03/16 12:31:37;;;;;;;6.78;2.70;;;11.80;79.50;;;;;;5035030;28;20207;-83
2023/03/16 12:34:23;;;;;;;3.80;2.90;;;11.80;79.50;;;;;;5023411;28;20270;-83
2023/03/16 12:37:18;;;;;;;5.32;2.40;;;11.60;79.50;;;;;;5025957;28;20204;-82
2023/03/16 12:40:07;;;;;;;4.85;2.80;;;11.50;80.40;;;;;;5026037;28;20222;-83
2023/03/16 12:43:13;;;;;;;4.03;2.88;;;11.50;81.20;;;;;;5027503;28;20209;-84
2023/03/16 12:46:08;;;;;;;7.47;2.63;;;11.50;79.80;;;;;;5026256;28;20289;-82
2023/03/16 12:48:39;;;;;;;5.07;2.47;;;11.50;80.40;;;;;;5024961;28;20257;-83
2023/03/16 12:51:07;;;;;;;4.78;2.35;;;11.70;81.00;;;;;;5029799;28;20217;-83
2023/03/16 12:53:46;;;;;;;4.03;2.42;;;11.80;80.80;;;;;;5025069;28;20594;-83
2023/03/16 12:56:17;;;;;;;6.45;2.45;;;11.60;80.10;;;;;;5030073;28;20214;-82
2023/03/16 12:58:47;;;;;;;5.85;2.95;;;11.70;80.30;;;;;;5032961;28;20243;-83
2023/03/16 13:01:18;;;;;;;5.93;2.47;;;11.80;80.00;;;;;;5026857;28;20226;-83
2023/03/16 13:03:49;;;;;;;3.85;2.63;;;11.60;80.00;;;;;;5030892;28;20229;-83
2023/03/16 13:06:23;;;;;;;4.82;2.92;;;11.50;80.10;;;;;;5036915;28;20298;-83
2023/03/16 13:08:55;;;;;;;9.05;3.20;;;11.50;80.20;;;;;;5036009;28;20215;-82
2023/03/16 13:11:23;;;;;;;3.17;2.70;;;11.50;80.80;;;;;;5036363;28;20245;-82
2023/03/16 13:13:52;;;;;;;3.33;2.40;;;11.20;81.60;;;;;;5030953;28;20203;-82